Time;durP1;ratioP1;P1;durP2;ratioP2;P2;SDS_P1;SDS_P2;PMS_P1;PMS_P2;Temp;Humidity;BMP_temperature;BMP_pressure;BME280_temperature;BME280_humidity;BME280_pressure;Samples;Min_cycle;Max_cycle;Signal;HPM_P1;HPM_P2
2021/01/09 00:00:34;;;;;;;25.90;14.32;;;2.80;88.00;;;;;;5054241;28;20020;-64
2021/01/09 00:03:00;;;;;;;25.02;13.82;;;2.70;87.90;;;;;;5053007;28;20475;-64
2021/01/09 00:05:26;;;;;;;23.00;12.55;;;2.70;88.40;;;;;;5054135;28;20021;-73
2021/01/09 00:07:52;;;;;;;24.02;13.70;;;2.70;88.30;;;;;;5053927;28;20036;-65
2021/01/09 00:10:17;;;;;;;22.63;12.27;;;2.60;88.20;;;;;;5052763;28;20025;-65
2021/01/09 00:12:43;;;;;;;25.48;13.95;;;2.60;88.10;;;;;;5053903;28;20032;-64
2021/01/09 00:15:10;;;;;;;23.63;12.38;;;2.50;88.00;;;;;;5054302;28;20102;-65
2021/01/09 00:17:36;;;;;;;27.25;14.05;;;2.40;88.00;;;;;;5054029;28;20368;-64
2021/01/09 00:20:13;;;;;;;25.83;13.38;;;2.40;88.10;;;;;;5052450;28;20059;-66
2021/01/09 00:22:40;;;;;;;23.63;13.70;;;2.40;88.30;;;;;;5053738;28;20086;-65
2021/01/09 00:25:07;;;;;;;22.13;13.13;;;2.40;88.30;;;;;;5052662;28;20032;-64
2021/01/09 00:27:33;;;;;;;24.02;12.30;;;2.30;88.40;;;;;;5052404;28;20027;-67
2021/01/09 00:29:59;;;;;;;23.23;12.68;;;2.30;88.40;;;;;;5053667;28;20096;-65
2021/01/09 00:32:25;;;;;;;23.90;12.82;;;2.30;88.60;;;;;;5052462;28;20056;-64
2021/01/09 00:34:50;;;;;;;23.98;13.07;;;2.30;88.70;;;;;;5052336;28;20066;-64
2021/01/09 00:37:16;;;;;;;23.70;12.18;;;2.30;88.80;;;;;;5053547;28;20029;-64
2021/01/09 00:39:46;;;;;;;22.80;11.75;;;2.30;88.70;;;;;;5053321;28;20056;-65
2021/01/09 00:42:11;;;;;;;27.27;12.02;;;2.20;88.90;;;;;;5053625;28;20085;-64
2021/01/09 00:44:37;;;;;;;24.70;12.52;;;2.30;88.90;;;;;;5053372;28;20108;-64
2021/01/09 00:47:03;;;;;;;22.70;11.98;;;2.30;88.80;;;;;;5053460;28;20025;-64
2021/01/09 00:49:28;;;;;;;22.42;12.23;;;2.20;88.50;;;;;;5052653;28;20021;-64
2021/01/09 00:51:55;;;;;;;26.73;14.60;;;2.20;88.50;;;;;;5052713;28;20028;-65
2021/01/09 00:54:20;;;;;;;25.08;13.95;;;2.10;88.50;;;;;;5053712;28;20437;-64
2021/01/09 00:56:46;;;;;;;24.85;13.32;;;2.10;88.50;;;;;;5053284;28;20115;-64
2021/01/09 00:59:12;;;;;;;24.95;13.15;;;2.10;88.50;;;;;;5053175;28;20048;-64
2021/01/09 01:01:37;;;;;;;24.38;13.55;;;2.10;88.60;;;;;;5053346;28;20075;-64
2021/01/09 01:04:03;;;;;;;24.42;12.93;;;2.10;88.90;;;;;;5051560;28;20044;-63
2021/01/09 01:06:29;;;;;;;25.15;12.63;;;2.10;88.80;;;;;;5053183;28;20418;-64
2021/01/09 01:08:54;;;;;;;22.33;12.38;;;2.10;88.70;;;;;;5053176;28;20053;-64
2021/01/09 01:11:26;;;;;;;23.77;12.27;;;2.10;88.60;;;;;;5053699;28;20486;-64
2021/01/09 01:13:52;;;;;;;25.13;12.50;;;2.00;88.50;;;;;;5051735;28;20506;-64
2021/01/09 01:16:18;;;;;;;24.88;13.00;;;2.00;88.60;;;;;;5052875;28;20356;-65
2021/01/09 01:18:44;;;;;;;20.00;12.02;;;2.00;88.60;;;;;;5051830;28;20032;-65
2021/01/09 01:21:10;;;;;;;24.30;13.15;;;2.00;88.70;;;;;;5052715;28;20017;-64
2021/01/09 01:23:36;;;;;;;23.02;12.43;;;2.00;88.70;;;;;;5052983;28;20456;-64
2021/01/09 01:26:01;;;;;;;28.88;12.90;;;2.00;88.90;;;;;;5052788;28;20049;-64
2021/01/09 01:28:27;;;;;;;24.63;12.60;;;2.00;89.20;;;;;;5049552;28;20032;-65
2021/01/09 01:30:53;;;;;;;23.13;11.82;;;2.00;89.10;;;;;;5050543;28;20044;-65
2021/01/09 01:33:19;;;;;;;20.75;11.98;;;2.00;88.70;;;;;;5052721;28;20048;-64
2021/01/09 01:35:44;;;;;;;23.35;12.43;;;2.00;88.90;;;;;;5053104;28;20064;-64
2021/01/09 01:38:10;;;;;;;22.35;12.18;;;2.00;88.90;;;;;;5052721;28;20021;-65
2021/01/09 01:40:36;;;;;;;20.58;11.95;;;2.00;89.00;;;;;;5052525;28;20056;-65
2021/01/09 01:43:11;;;;;;;22.35;12.43;;;2.00;88.90;;;;;;5051634;28;20100;-65
2021/01/09 01:45:38;;;;;;;21.60;12.45;;;2.00;89.10;;;;;;5051519;28;20486;-65
2021/01/09 01:48:09;;;;;;;25.55;13.00;;;2.00;89.20;;;;;;5051167;28;20029;-65
2021/01/09 01:50:36;;;;;;;23.38;12.90;;;2.00;89.20;;;;;;5051551;28;20029;-64
2021/01/09 01:53:02;;;;;;;25.13;12.65;;;2.10;89.30;;;;;;5051544;28;20068;-64
2021/01/09 01:55:31;;;;;;;26.52;13.95;;;2.00;89.20;;;;;;5051600;28;20056;-65
2021/01/09 01:57:57;;;;;;;23.65;12.68;;;2.10;89.20;;;;;;5051026;28;20033;-64
2021/01/09 02:00:27;;;;;;;24.27;12.38;;;2.10;89.10;;;;;;5051362;28;20029;-64
2021/01/09 02:02:57;;;;;;;22.67;12.55;;;2.10;89.20;;;;;;5054899;28;20056;-64
2021/01/09 02:05:33;;;;;;;24.38;12.60;;;2.10;89.20;;;;;;5055353;28;20083;-64
2021/01/09 02:08:02;;;;;;;27.08;12.70;;;2.10;89.00;;;;;;5056085;28;20364;-64
2021/01/09 02:10:28;;;;;;;26.63;13.02;;;2.10;89.00;;;;;;5055168;28;20534;-64
2021/01/09 02:13:17;;;;;;;23.85;12.93;;;2.10;89.30;;;;;;5054691;28;20029;-64
2021/01/09 02:15:43;;;;;;;23.60;12.20;;;2.10;89.00;;;;;;5051944;28;20033;-64
2021/01/09 02:18:12;;;;;;;24.10;12.90;;;2.10;88.80;;;;;;5056005;28;20099;-64
2021/01/09 02:20:41;;;;;;;25.35;13.02;;;2.10;88.90;;;;;;5054925;28;20025;-64
2021/01/09 02:23:06;;;;;;;26.10;13.57;;;2.10;89.20;;;;;;5054750;28;20033;-64
2021/01/09 02:25:32;;;;;;;23.83;12.32;;;2.10;88.90;;;;;;5055975;28;20364;-64
2021/01/09 02:27:58;;;;;;;22.60;12.52;;;2.20;89.40;;;;;;5055676;28;20037;-64
2021/01/09 02:30:31;;;;;;;29.67;13.43;;;2.30;89.70;;;;;;5056770;28;20348;-64
2021/01/09 02:33:04;;;;;;;23.58;12.35;;;2.30;89.40;;;;;;5054816;28;20459;-64
2021/01/09 02:35:34;;;;;;;25.27;13.65;;;2.30;89.40;;;;;;5037913;28;20028;-64
2021/01/09 02:38:00;;;;;;;25.48;13.77;;;2.40;89.40;;;;;;5048372;28;20103;-64
2021/01/09 02:40:26;;;;;;;24.58;13.63;;;2.40;89.20;;;;;;5055728;28;20048;-64
2021/01/09 02:42:51;;;;;;;27.33;13.88;;;2.40;88.90;;;;;;5054720;28;20478;-64
2021/01/09 02:45:17;;;;;;;26.15;14.30;;;2.30;88.90;;;;;;5055541;28;20031;-64
2021/01/09 02:47:43;;;;;;;25.10;14.00;;;2.30;88.70;;;;;;5054539;28;20032;-64
2021/01/09 02:50:10;;;;;;;30.17;14.98;;;2.30;88.80;;;;;;5055473;28;20022;-64
2021/01/09 02:52:40;;;;;;;27.63;14.30;;;2.30;89.00;;;;;;5054273;28;20377;-64
2021/01/09 02:55:07;;;;;;;28.17;14.85;;;2.30;89.00;;;;;;5054585;28;20040;-64
2021/01/09 02:57:34;;;;;;;26.83;14.48;;;2.30;89.00;;;;;;5054258;28;20036;-64
2021/01/09 02:59:59;;;;;;;28.90;14.50;;;2.30;89.20;;;;;;5054197;28;20051;-64
2021/01/09 03:02:25;;;;;;;27.42;14.70;;;2.30;89.40;;;;;;5055285;28;20020;-64
2021/01/09 03:04:51;;;;;;;28.13;14.38;;;2.40;89.20;;;;;;5055373;28;20105;-64
2021/01/09 03:07:16;;;;;;;28.08;15.45;;;2.40;89.00;;;;;;5053752;28;20495;-64
2021/01/09 03:09:42;;;;;;;28.65;14.77;;;2.30;88.80;;;;;;5055479;28;20083;-64
2021/01/09 03:12:08;;;;;;;32.25;15.73;;;2.30;88.80;;;;;;5054977;28;20481;-64
2021/01/09 03:14:34;;;;;;;31.75;16.83;;;2.40;89.00;;;;;;5053092;28;20029;-64
2021/01/09 03:17:00;;;;;;;32.47;15.88;;;2.30;88.90;;;;;;5055393;28;20031;-64
2021/01/09 03:19:26;;;;;;;28.25;16.05;;;2.30;89.00;;;;;;5053692;28;20025;-64
2021/01/09 03:21:52;;;;;;;30.50;15.70;;;2.30;89.10;;;;;;5054623;28;20021;-64
2021/01/09 03:24:18;;;;;;;30.63;16.40;;;2.40;89.50;;;;;;5053734;28;20029;-64
2021/01/09 03:26:44;;;;;;;30.65;16.10;;;2.40;88.90;;;;;;5055241;28;20044;-65
2021/01/09 03:29:10;;;;;;;32.38;16.25;;;2.30;88.90;;;;;;5053735;28;20021;-64
2021/01/09 03:31:35;;;;;;;31.70;16.23;;;2.30;88.80;;;;;;5053597;28;20029;-64
2021/01/09 03:34:01;;;;;;;28.88;15.23;;;2.30;88.80;;;;;;5054560;28;20364;-64
2021/01/09 03:36:27;;;;;;;31.60;16.48;;;2.30;88.90;;;;;;5054768;28;20044;-64
2021/01/09 03:38:53;;;;;;;36.17;18.00;;;2.30;89.10;;;;;;5054598;28;20023;-63
2021/01/09 03:41:19;;;;;;;40.40;19.73;;;2.30;89.30;;;;;;5053195;28;20048;-64
2021/01/09 03:43:44;;;;;;;35.65;19.92;;;2.40;89.50;;;;;;5054716;28;20107;-64
2021/01/09 03:46:10;;;;;;;36.83;19.92;;;2.40;89.40;;;;;;5053120;28;20017;-65
2021/01/09 03:48:36;;;;;;;39.90;21.23;;;2.40;89.20;;;;;;5054352;28;20021;-65
2021/01/09 03:51:02;;;;;;;35.42;19.50;;;2.40;88.90;;;;;;5054334;28;20025;-64
2021/01/09 03:53:28;;;;;;;34.15;19.25;;;2.40;89.10;;;;;;5053195;28;20483;-64
2021/01/09 03:55:54;;;;;;;31.50;18.77;;;2.40;89.20;;;;;;5054195;28;20035;-64
2021/01/09 03:58:19;;;;;;;34.78;19.83;;;2.50;89.40;;;;;;5053048;28;20403;-64
2021/01/09 04:00:45;;;;;;;34.97;18.33;;;2.50;89.30;;;;;;5052728;28;20021;-64
2021/01/09 04:03:11;;;;;;;33.22;17.35;;;2.50;89.10;;;;;;5052828;28;20079;-65
2021/01/09 04:05:37;;;;;;;31.85;17.27;;;2.50;88.60;;;;;;5053775;28;20025;-64
2021/01/09 04:08:03;;;;;;;29.77;16.20;;;2.50;88.70;;;;;;5053979;28;20383;-64
2021/01/09 04:10:28;;;;;;;32.00;16.92;;;2.40;88.60;;;;;;5052815;28;20032;-64
2021/01/09 04:12:54;;;;;;;30.60;17.92;;;2.50;88.80;;;;;;5053859;28;20025;-64
2021/01/09 04:15:20;;;;;;;31.65;16.73;;;2.50;88.60;;;;;;5052702;28;20397;-64
2021/01/09 04:17:45;;;;;;;30.30;15.57;;;2.40;88.10;;;;;;5053795;28;20025;-65
2021/01/09 04:20:11;;;;;;;32.55;17.33;;;2.30;88.30;;;;;;5052327;28;20486;-64
2021/01/09 04:22:37;;;;;;;32.25;17.83;;;2.30;88.50;;;;;;5052532;28;20021;-64
2021/01/09 04:25:03;;;;;;;31.20;17.65;;;2.30;88.50;;;;;;5053985;28;20032;-65
2021/01/09 04:27:29;;;;;;;33.13;17.13;;;2.20;88.50;;;;;;5052599;28;20138;-64
2021/01/09 04:29:55;;;;;;;29.20;16.17;;;2.20;88.70;;;;;;5052112;28;20128;-64
2021/01/09 04:32:20;;;;;;;31.00;16.90;;;2.30;88.90;;;;;;5053684;28;20029;-64
2021/01/09 04:34:47;;;;;;;32.42;17.05;;;2.20;88.70;;;;;;5053192;28;20116;-65
2021/01/09 04:37:14;;;;;;;33.17;17.05;;;2.20;89.00;;;;;;5052366;28;20086;-64
2021/01/09 04:39:40;;;;;;;30.25;17.02;;;2.20;88.80;;;;;;5052223;28;20041;-64
2021/01/09 04:42:06;;;;;;;34.13;18.58;;;2.20;88.70;;;;;;5051833;28;20447;-64
2021/01/09 04:44:32;;;;;;;34.90;17.75;;;2.20;88.90;;;;;;5053482;28;20065;-65
2021/01/09 04:47:00;;;;;;;33.63;17.98;;;2.20;88.90;;;;;;5052062;28;20112;-65
2021/01/09 04:49:27;;;;;;;38.05;19.40;;;2.20;89.00;;;;;;5052022;28;20025;-64
2021/01/09 04:51:54;;;;;;;37.40;20.88;;;2.20;89.00;;;;;;5051864;28;20028;-66
2021/01/09 04:54:21;;;;;;;32.58;18.42;;;2.20;89.10;;;;;;5052088;28;20086;-65
2021/01/09 04:56:49;;;;;;;33.97;19.67;;;2.20;89.00;;;;;;5053239;28;20438;-64
2021/01/09 04:59:19;;;;;;;36.72;20.20;;;2.10;88.70;;;;;;5051861;28;20021;-64
2021/01/09 05:01:47;;;;;;;40.17;20.75;;;2.10;88.80;;;;;;5053105;28;20078;-65
2021/01/09 05:04:14;;;;;;;40.20;21.92;;;2.10;88.80;;;;;;5051767;28;20056;-64
2021/01/09 05:06:41;;;;;;;38.00;22.00;;;2.00;88.70;;;;;;5052088;28;20471;-65
2021/01/09 05:09:08;;;;;;;37.42;22.23;;;2.00;88.80;;;;;;5051700;28;20123;-65
2021/01/09 05:11:39;;;;;;;43.80;23.50;;;2.00;89.20;;;;;;5051885;28;20539;-65
2021/01/09 05:14:05;;;;;;;40.05;22.17;;;2.10;89.50;;;;;;5051341;28;20045;-64
2021/01/09 05:16:32;;;;;;;43.95;23.27;;;2.10;89.30;;;;;;5051618;28;20032;-64
2021/01/09 05:18:59;;;;;;;44.83;24.92;;;2.00;89.10;;;;;;5051860;28;20063;-64
2021/01/09 05:21:27;;;;;;;43.05;22.80;;;2.00;89.10;;;;;;5051611;28;20025;-65
2021/01/09 05:24:24;;;;;;;46.05;24.65;;;2.00;89.20;;;;;;5051743;28;20032;-65
2021/01/09 05:26:49;;;;;;;;;;;2.00;89.20;;;;;;5045053;28;20037;-64
2021/01/09 05:29:17;;;;;;;49.22;25.98;;;2.00;89.20;;;;;;5052791;28;20248;-64
2021/01/09 05:31:43;;;;;;;45.97;25.45;;;1.90;89.40;;;;;;5052895;28;20590;-65
2021/01/09 05:34:09;;;;;;;50.97;26.50;;;1.90;89.50;;;;;;5051434;28;20120;-64
2021/01/09 05:36:35;;;;;;;49.70;26.42;;;1.90;89.70;;;;;;5054029;28;20478;-65
2021/01/09 05:39:03;;;;;;;45.45;24.83;;;1.90;89.80;;;;;;5038693;28;20026;-64
2021/01/09 05:41:29;;;;;;;48.75;25.02;;;1.90;90.00;;;;;;5050111;28;20081;-64
2021/01/09 05:44:06;;;;;;;42.70;22.90;;;2.00;90.10;;;;;;5056410;28;20107;-65
2021/01/09 05:46:36;;;;;;;46.15;24.20;;;2.00;90.10;;;;;;5056805;28;20181;-64
2021/01/09 05:49:04;;;;;;;55.75;27.13;;;2.10;90.00;;;;;;5055398;28;20498;-64
2021/01/09 05:51:38;;;;;;;67.68;30.55;;;2.10;90.10;;;;;;5055454;28;20119;-64
2021/01/09 05:54:04;;;;;;;87.47;36.30;;;2.10;90.00;;;;;;5056273;28;20036;-64
2021/01/09 05:56:29;;;;;;;102.32;39.47;;;2.10;90.00;;;;;;5055559;28;20036;-65
2021/01/09 05:58:56;;;;;;;88.97;32.65;;;2.10;90.00;;;;;;5056410;28;20464;-65
2021/01/09 06:01:34;;;;;;;77.45;32.47;;;2.20;90.10;;;;;;5055533;28;20139;-65
2021/01/09 06:04:05;;;;;;;73.88;32.63;;;2.20;90.20;;;;;;5055002;28;20091;-65
2021/01/09 06:06:49;;;;;;;70.95;30.88;;;2.30;90.10;;;;;;5056493;28;20029;-65
2021/01/09 06:09:25;;;;;;;73.72;33.80;;;2.30;90.20;;;;;;5055065;28;20025;-65
2021/01/09 06:11:55;;;;;;;71.65;33.45;;;2.30;90.10;;;;;;5054972;28;20062;-66
2021/01/09 06:14:25;;;;;;;59.17;28.83;;;2.30;90.00;;;;;;5056383;28;20364;-65
2021/01/09 06:16:52;;;;;;;48.60;25.75;;;2.30;90.00;;;;;;5054807;28;20031;-65
2021/01/09 06:19:23;;;;;;;46.80;24.08;;;2.30;90.00;;;;;;5054730;28;20063;-65
2021/01/09 06:21:53;;;;;;;43.20;22.80;;;2.30;90.10;;;;;;5055081;28;20136;-65
2021/01/09 06:24:21;;;;;;;46.55;24.70;;;2.30;90.10;;;;;;5054650;28;20100;-65
2021/01/09 06:26:47;;;;;;;50.58;23.85;;;2.30;90.10;;;;;;5054896;28;20082;-65
2021/01/09 06:29:20;;;;;;;46.58;22.92;;;2.30;90.00;;;;;;5055916;28;20021;-65
2021/01/09 06:32:07;;;;;;;42.83;21.30;;;2.30;90.10;;;;;;5056008;28;20082;-65
2021/01/09 06:34:37;;;;;;;42.30;22.38;;;2.40;90.20;;;;;;5054232;28;20102;-65
2021/01/09 06:37:05;;;;;;;40.72;20.50;;;2.40;90.20;;;;;;5054223;28;20029;-65
2021/01/09 06:39:36;;;;;;;39.90;20.45;;;2.40;90.20;;;;;;5054303;28;20498;-64
2021/01/09 06:42:05;;;;;;;38.50;20.10;;;2.50;90.30;;;;;;5054341;28;20040;-63
2021/01/09 06:44:31;;;;;;;39.45;19.98;;;2.50;90.30;;;;;;5055877;28;20029;-64
2021/01/09 06:46:58;;;;;;;38.13;20.13;;;2.50;90.20;;;;;;5054127;28;20088;-66
2021/01/09 06:49:25;;;;;;;39.97;20.73;;;2.50;90.10;;;;;;5053777;28;20090;-64
2021/01/09 06:52:06;;;;;;;43.47;21.30;;;2.50;90.30;;;;;;5055583;28;20017;-66
2021/01/09 06:54:37;;;;;;;38.67;20.35;;;2.60;90.40;;;;;;5043763;28;20044;-64
2021/01/09 06:57:03;;;;;;;42.00;22.08;;;2.70;90.30;;;;;;5055819;28;20029;-66
2021/01/09 06:59:33;;;;;;;41.80;21.42;;;2.70;90.20;;;;;;5055493;28;20021;-64
2021/01/09 07:02:22;;;;;;;44.53;21.38;;;2.70;90.20;;;;;;5054008;28;20032;-63
2021/01/09 07:04:57;;;;;;;42.17;22.25;;;2.70;90.30;;;;;;5042708;28;20171;-64
2021/01/09 07:07:29;;;;;;;40.85;21.27;;;2.70;90.20;;;;;;5054176;28;20025;-64
2021/01/09 07:10:15;;;;;;;40.80;23.05;;;2.80;90.30;;;;;;5055208;28;20083;-64
2021/01/09 07:12:50;;;;;;;41.78;22.38;;;2.80;90.20;;;;;;5053538;28;20029;-64
2021/01/09 07:15:17;;;;;;;47.72;22.38;;;2.80;90.30;;;;;;5053934;28;20025;-65
2021/01/09 07:17:55;;;;;;;44.80;22.88;;;2.90;90.30;;;;;;5055127;28;20059;-65
2021/01/09 07:20:23;;;;;;;45.28;21.75;;;2.80;90.20;;;;;;5053878;28;20032;-65
2021/01/09 07:22:56;;;;;;;44.30;21.60;;;2.80;90.20;;;;;;5053464;28;20344;-65
2021/01/09 07:25:37;;;;;;;41.03;20.80;;;2.90;90.20;;;;;;5053691;28;20506;-65
2021/01/09 07:28:08;;;;;;;40.85;21.05;;;2.90;90.30;;;;;;5053528;28;20111;-65
2021/01/09 07:30:34;;;;;;;39.70;20.58;;;2.90;90.20;;;;;;5053982;28;20124;-65
2021/01/09 07:33:00;;;;;;;44.17;23.02;;;2.90;90.50;;;;;;5054418;28;20112;-65
2021/01/09 07:35:31;;;;;;;43.50;22.33;;;2.90;90.30;;;;;;5053818;28;20029;-65
2021/01/09 07:38:03;;;;;;;43.30;21.52;;;3.00;90.40;;;;;;5052999;28;20025;-65
2021/01/09 07:40:41;;;;;;;41.90;21.15;;;3.10;90.40;;;;;;5053231;28;20536;-64
2021/01/09 07:43:33;;;;;;;42.47;22.20;;;3.20;90.30;;;;;;5054730;28;20033;-64
2021/01/09 07:46:00;;;;;;;40.63;22.42;;;3.20;90.10;;;;;;5053069;28;20025;-65
2021/01/09 07:48:32;;;;;;;46.92;23.98;;;3.10;90.00;;;;;;5053072;28;20029;-65
2021/01/09 07:50:58;;;;;;;41.75;21.13;;;3.10;90.10;;;;;;5054909;28;20109;-65
2021/01/09 07:53:27;;;;;;;41.53;21.67;;;3.10;90.10;;;;;;5054475;28;20107;-65
2021/01/09 07:55:54;;;;;;;41.38;22.13;;;3.10;90.10;;;;;;5052502;28;20493;-65
2021/01/09 07:58:42;;;;;;;42.60;21.85;;;3.10;90.20;;;;;;5054413;28;20025;-65
2021/01/09 08:01:08;;;;;;;41.03;21.25;;;3.10;90.20;;;;;;5052914;28;20063;-66
2021/01/09 08:03:34;;;;;;;41.53;20.77;;;3.10;90.10;;;;;;5054543;28;20033;-65
2021/01/09 08:06:00;;;;;;;42.25;22.70;;;3.10;90.20;;;;;;5053746;28;20021;-65
2021/01/09 08:08:26;;;;;;;42.88;22.40;;;3.20;90.20;;;;;;5052936;28;20117;-65
2021/01/09 08:10:52;;;;;;;44.92;22.40;;;3.20;90.30;;;;;;5052927;28;20024;-65
2021/01/09 08:13:21;;;;;;;45.08;22.77;;;3.20;90.30;;;;;;5053830;28;20056;-66
2021/01/09 08:15:46;;;;;;;42.45;23.08;;;3.30;90.30;;;;;;5053429;28;20033;-65
2021/01/09 08:18:12;;;;;;;43.10;23.50;;;3.40;90.40;;;;;;5053843;28;20107;-65
2021/01/09 08:20:38;;;;;;;43.75;22.90;;;3.50;90.40;;;;;;5052621;28;20025;-65
2021/01/09 08:23:05;;;;;;;40.90;21.67;;;3.50;90.20;;;;;;5053728;28;20029;-64
2021/01/09 08:25:43;;;;;;;44.05;21.83;;;3.60;90.20;;;;;;5053806;28;20468;-65
2021/01/09 08:28:09;;;;;;;45.58;22.65;;;3.50;90.10;;;;;;5051951;28;20507;-64
2021/01/09 08:30:39;;;;;;;42.15;22.67;;;3.60;90.20;;;;;;5052898;28;20078;-65
2021/01/09 08:33:22;;;;;;;45.88;23.75;;;3.60;90.50;;;;;;5052345;28;20033;-65
2021/01/09 08:35:50;;;;;;;43.13;23.00;;;3.70;90.20;;;;;;5053676;28;20490;-65
2021/01/09 08:38:16;;;;;;;40.83;20.98;;;3.80;90.20;;;;;;5051952;28;20025;-74
2021/01/09 08:40:42;;;;;;;41.30;22.08;;;3.80;90.20;;;;;;5052242;28;20083;-65
2021/01/09 08:43:10;;;;;;;44.33;23.45;;;3.90;90.50;;;;;;5052397;28;20039;-65
2021/01/09 08:45:53;;;;;;;46.67;23.70;;;4.00;90.20;;;;;;5052227;28;20021;-65
2021/01/09 08:48:29;;;;;;;41.95;22.77;;;4.00;90.20;;;;;;5053522;28;20029;-65
2021/01/09 08:51:07;;;;;;;42.72;21.20;;;4.10;90.10;;;;;;5053150;28;20029;-67
2021/01/09 08:53:56;;;;;;;43.65;22.30;;;4.20;90.10;;;;;;5052169;28;20068;-65
2021/01/09 08:56:29;;;;;;;45.63;23.15;;;4.20;90.00;;;;;;5042410;28;20025;-65
2021/01/09 08:59:00;;;;;;;41.47;22.23;;;4.30;89.80;;;;;;5051891;28;20543;-65
2021/01/09 09:01:31;;;;;;;41.65;21.60;;;4.40;90.00;;;;;;5051908;28;20487;-64
2021/01/09 09:04:01;;;;;;;39.20;21.05;;;4.50;89.90;;;;;;5053025;28;20454;-64
2021/01/09 09:06:31;;;;;;;43.90;22.17;;;4.50;89.50;;;;;;5053315;28;20025;-64
2021/01/09 09:08:58;;;;;;;41.70;22.48;;;4.60;89.60;;;;;;5051740;28;20056;-64
2021/01/09 09:11:25;;;;;;;42.25;21.60;;;4.60;89.60;;;;;;5051175;28;20025;-65
2021/01/09 09:14:06;;;;;;;41.72;22.42;;;4.70;89.30;;;;;;5052701;28;20040;-66
2021/01/09 09:16:33;;;;;;;37.58;21.30;;;4.70;89.00;;;;;;5039003;28;20383;-65
2021/01/09 09:19:15;;;;;;;42.22;21.38;;;4.80;88.90;;;;;;5053252;28;20025;-64
2021/01/09 09:21:43;;;;;;;43.40;22.73;;;4.80;88.90;;;;;;5052944;28;20434;-64
2021/01/09 09:24:10;;;;;;;40.80;21.52;;;4.90;88.60;;;;;;5052705;28;20885;-65
2021/01/09 09:26:36;;;;;;;37.83;20.33;;;4.90;88.60;;;;;;5051597;28;20356;-64
2021/01/09 09:29:02;;;;;;;38.08;20.42;;;5.00;88.60;;;;;;5051791;28;20124;-65
2021/01/09 09:31:42;;;;;;;42.15;22.08;;;5.10;88.10;;;;;;5052938;28;20075;-65
2021/01/09 09:34:13;;;;;;;38.40;20.13;;;5.10;87.30;;;;;;5051512;28;20427;-65
2021/01/09 09:36:51;;;;;;;35.47;20.38;;;5.10;87.40;;;;;;5051389;28;20039;-67
2021/01/09 09:39:19;;;;;;;37.47;20.70;;;5.10;87.50;;;;;;5052692;28;20059;-67
2021/01/09 09:41:56;;;;;;;39.40;20.92;;;5.20;87.90;;;;;;5052717;28;20387;-66
2021/01/09 09:44:33;;;;;;;38.35;20.48;;;5.30;87.10;;;;;;5051550;28;20079;-64
2021/01/09 09:46:59;;;;;;;38.97;21.85;;;5.30;86.60;;;;;;5051215;28;20029;-65
2021/01/09 09:49:24;;;;;;;41.90;22.67;;;5.40;86.60;;;;;;5051369;28;20112;-65
2021/01/09 09:51:50;;;;;;;40.92;21.42;;;5.30;86.30;;;;;;5052935;28;20033;-66
2021/01/09 09:54:27;;;;;;;41.55;21.40;;;5.30;85.60;;;;;;5052577;28;20517;-65
2021/01/09 09:56:53;;;;;;;44.95;22.98;;;5.30;85.60;;;;;;5052878;28;20079;-65
2021/01/09 09:59:27;;;;;;;39.47;21.00;;;5.30;85.60;;;;;;5051174;28;20048;-65
2021/01/09 10:02:00;;;;;;;38.30;19.85;;;5.30;85.70;;;;;;5050971;28;20029;-66
2021/01/09 10:04:27;;;;;;;38.35;20.25;;;5.30;85.50;;;;;;5052612;28;20082;-65
2021/01/09 10:06:53;;;;;;;39.55;20.02;;;5.20;85.30;;;;;;5052625;28;20463;-65
2021/01/09 10:09:20;;;;;;;47.03;20.42;;;5.20;85.00;;;;;;5051239;28;20021;-65
2021/01/09 10:11:48;;;;;;;39.92;20.58;;;5.20;85.60;;;;;;5052545;28;20029;-66
2021/01/09 10:14:14;;;;;;;36.95;19.58;;;5.30;85.70;;;;;;5050681;28;20043;-66
2021/01/09 10:16:40;;;;;;;43.58;22.50;;;5.30;85.10;;;;;;5052728;28;20100;-66
2021/01/09 10:19:06;;;;;;;45.55;22.88;;;5.20;84.90;;;;;;5050977;28;20028;-65
2021/01/09 10:21:33;;;;;;;42.35;22.35;;;5.20;85.00;;;;;;5051435;28;20120;-65
2021/01/09 10:24:00;;;;;;;41.90;20.88;;;5.20;85.00;;;;;;5054663;28;20029;-65
2021/01/09 10:26:34;;;;;;;40.33;21.05;;;5.20;84.60;;;;;;5054600;28;20115;-65
2021/01/09 10:29:01;;;;;;;40.67;20.30;;;5.10;84.20;;;;;;5055940;28;20052;-65
2021/01/09 10:31:32;;;;;;;36.85;19.83;;;5.00;84.00;;;;;;5054649;28;20029;-65
2021/01/09 10:33:58;;;;;;;38.65;21.92;;;5.00;84.00;;;;;;5054598;28;20068;-66
2021/01/09 10:36:29;;;;;;;39.20;20.77;;;5.00;84.60;;;;;;5054615;28;20048;-66
2021/01/09 10:38:54;;;;;;;38.10;20.45;;;5.00;84.60;;;;;;5054376;28;20013;-65
2021/01/09 10:41:21;;;;;;;38.63;21.15;;;5.10;84.30;;;;;;5054364;28;20052;-66
2021/01/09 10:43:47;;;;;;;38.67;19.95;;;5.00;84.10;;;;;;5054687;28;20132;-65
2021/01/09 10:46:20;;;;;;;41.33;21.17;;;5.00;84.20;;;;;;5055722;28;20104;-65
2021/01/09 10:48:45;;;;;;;41.58;21.25;;;5.00;84.30;;;;;;5054537;28;20033;-65
2021/01/09 10:51:15;;;;;;;39.03;19.50;;;5.00;84.50;;;;;;5055954;28;20360;-66
2021/01/09 10:53:41;;;;;;;41.03;20.77;;;5.00;84.10;;;;;;5053990;28;20162;-65
2021/01/09 10:56:07;;;;;;;37.22;20.77;;;5.00;84.20;;;;;;5054034;28;20173;-66
2021/01/09 10:58:33;;;;;;;38.42;20.45;;;5.00;83.60;;;;;;5055812;28;20025;-65
2021/01/09 11:00:59;;;;;;;35.22;19.70;;;5.00;84.30;;;;;;5054021;28;20056;-65
2021/01/09 11:03:24;;;;;;;39.55;21.17;;;5.10;84.40;;;;;;5055427;28;20036;-65
2021/01/09 11:05:50;;;;;;;39.40;20.63;;;5.10;84.20;;;;;;5055216;28;20028;-66
2021/01/09 11:08:16;;;;;;;38.58;20.15;;;5.10;83.50;;;;;;5055781;28;20025;-66
2021/01/09 11:10:41;;;;;;;39.67;20.67;;;5.10;83.10;;;;;;5053695;28;20025;-66
2021/01/09 11:13:07;;;;;;;39.33;20.75;;;5.00;83.00;;;;;;5055316;28;20116;-65
2021/01/09 11:15:33;;;;;;;41.80;21.55;;;5.10;83.80;;;;;;5055447;28;20478;-65
2021/01/09 11:17:59;;;;;;;38.40;20.25;;;5.10;83.50;;;;;;5053344;28;20033;-65
2021/01/09 11:20:24;;;;;;;38.95;20.75;;;5.00;82.90;;;;;;5053452;28;20108;-65
2021/01/09 11:22:50;;;;;;;34.65;18.83;;;4.90;82.50;;;;;;5053566;28;20120;-65
2021/01/09 11:25:16;;;;;;;39.08;20.75;;;4.90;82.80;;;;;;5053510;28;20032;-65
2021/01/09 11:27:41;;;;;;;38.88;20.63;;;4.90;82.80;;;;;;5054711;28;20025;-65
2021/01/09 11:30:08;;;;;;;36.50;20.42;;;4.90;82.70;;;;;;5053487;28;20029;-65
2021/01/09 11:32:33;;;;;;;40.45;20.98;;;4.90;82.60;;;;;;5053632;28;20379;-65
2021/01/09 11:34:59;;;;;;;43.03;21.77;;;4.80;82.80;;;;;;5053726;28;20033;-66
2021/01/09 11:37:25;;;;;;;36.80;19.00;;;4.90;83.00;;;;;;5054621;28;20471;-66
2021/01/09 11:39:53;;;;;;;36.25;18.83;;;4.90;83.10;;;;;;5054205;28;20072;-66
2021/01/09 11:42:21;;;;;;;34.65;18.30;;;5.00;83.10;;;;;;5053275;28;20403;-66
2021/01/09 11:44:47;;;;;;;36.17;18.95;;;5.10;83.10;;;;;;5053744;28;20060;-65
2021/01/09 11:47:13;;;;;;;39.95;20.17;;;5.20;83.10;;;;;;5054366;28;20032;-65
2021/01/09 11:49:39;;;;;;;39.50;21.20;;;5.30;83.20;;;;;;5053285;28;20036;-65
2021/01/09 11:52:06;;;;;;;40.50;20.67;;;5.40;82.90;;;;;;5052767;28;20103;-67
2021/01/09 11:54:32;;;;;;;37.92;19.13;;;5.40;82.70;;;;;;5054559;28;20075;-66
2021/01/09 11:56:57;;;;;;;36.90;19.63;;;5.60;82.50;;;;;;5053168;28;20056;-66
2021/01/09 11:59:23;;;;;;;39.10;19.00;;;5.70;82.30;;;;;;5054449;28;20021;-66
2021/01/09 12:01:49;;;;;;;38.33;19.85;;;5.80;82.60;;;;;;5054257;28;20025;-66
2021/01/09 12:04:15;;;;;;;33.15;18.55;;;6.00;82.20;;;;;;5052860;28;20032;-66
2021/01/09 12:06:40;;;;;;;33.60;18.42;;;6.20;82.20;;;;;;5052751;28;20083;-64
2021/01/09 12:09:06;;;;;;;35.00;20.25;;;6.20;81.10;;;;;;5052568;28;20041;-66
2021/01/09 12:11:32;;;;;;;38.65;20.42;;;6.10;79.40;;;;;;5053098;28;20068;-66
2021/01/09 12:13:58;;;;;;;36.50;20.10;;;6.00;79.40;;;;;;5053697;28;20096;-66
2021/01/09 12:16:32;;;;;;;37.65;19.88;;;5.90;78.90;;;;;;5040144;28;20025;-64
2021/01/09 12:18:58;;;;;;;37.35;18.88;;;5.80;78.90;;;;;;5052676;28;20021;-65
2021/01/09 12:21:28;;;;;;;38.72;20.80;;;5.60;78.10;;;;;;5052147;28;20494;-65
2021/01/09 12:23:57;;;;;;;39.30;21.10;;;5.40;78.60;;;;;;5052601;28;20033;-65
2021/01/09 12:26:23;;;;;;;41.85;21.52;;;5.30;79.60;;;;;;5052434;28;20082;-65
2021/01/09 12:28:50;;;;;;;40.22;20.55;;;5.30;79.60;;;;;;5052330;28;20475;-64
2021/01/09 12:31:15;;;;;;;37.95;19.02;;;5.40;79.90;;;;;;5052279;28;20167;-64
2021/01/09 12:33:42;;;;;;;34.65;18.80;;;5.30;79.50;;;;;;5052232;28;20116;-65
2021/01/09 12:36:09;;;;;;;37.00;19.77;;;5.20;79.00;;;;;;5051750;28;20394;-65
2021/01/09 12:38:37;;;;;;;35.42;18.55;;;5.10;79.20;;;;;;5052342;28;20025;-65
2021/01/09 12:41:03;;;;;;;36.67;19.23;;;5.10;79.90;;;;;;5053448;28;20045;-65
2021/01/09 12:43:28;;;;;;;37.70;21.38;;;5.20;80.20;;;;;;5053371;28;20021;-66